Time;durP1;ratioP1;P1;durP2;ratioP2;P2;SDS_P1;SDS_P2;PMS_P1;PMS_P2;Temp;Humidity;BMP_temperature;BMP_pressure;BME280_temperature;BME280_humidity;BME280_pressure;Samples;Min_cycle;Max_cycle;Signal;HPM_P1;HPM_P2
2024/01/23 00:00:21;;;;;;;18.92;4.38;;;;;;;6.87;100.00;101540.81;4838185;29;20045;-67
2024/01/23 00:02:46;;;;;;;19.67;4.25;;;;;;;6.83;100.00;101540.06;4835181;29;20061;-68
2024/01/23 00:05:11;;;;;;;17.55;3.78;;;;;;;6.85;100.00;101548.00;4838383;29;20730;-67
2024/01/23 00:07:36;;;;;;;22.65;4.88;;;;;;;6.84;100.00;101565.00;4837167;29;20498;-68
2024/01/23 00:10:02;;;;;;;18.38;4.30;;;;;;;6.83;100.00;101563.25;4836780;29;20034;-68
2024/01/23 00:12:27;;;;;;;21.27;4.35;;;;;;;6.81;100.00;101573.16;4842122;29;20450;-68
2024/01/23 00:14:54;;;;;;;20.23;4.05;;;;;;;6.81;100.00;101573.16;4842765;29;20116;-68
2024/01/23 00:17:20;;;;;;;20.77;3.83;;;;;;;6.81;100.00;101589.19;4843239;29;20037;-68
2024/01/23 00:19:45;;;;;;;18.20;4.20;;;;;;;6.81;100.00;101613.25;4843365;29;20034;-68
2024/01/23 00:22:10;;;;;;;13.13;3.25;;;;;;;6.82;100.00;101585.56;4842150;29;20034;-68
2024/01/23 00:24:35;;;;;;;20.17;4.00;;;;;;;6.82;100.00;101599.81;4843854;29;20022;-68
2024/01/23 00:27:01;;;;;;;25.42;4.18;;;;;;;6.81;100.00;101598.06;4841696;29;20319;-68
2024/01/23 00:29:26;;;;;;;22.75;4.40;;;;;;;6.81;100.00;101602.56;4843667;29;20499;-68
2024/01/23 00:31:51;;;;;;;24.15;4.50;;;;;;;6.81;100.00;101599.88;4842535;29;20021;-68
2024/01/23 00:34:16;;;;;;;17.75;4.30;;;;;;;6.81;100.00;101605.22;4842714;29;20038;-68
2024/01/23 00:36:42;;;;;;;17.65;4.40;;;;;;;6.81;100.00;101607.91;4838085;29;20076;-68
2024/01/23 00:39:07;;;;;;;18.38;3.92;;;;;;;6.82;100.00;101614.94;4841103;29;20379;-68
2024/01/23 00:41:34;;;;;;;18.95;4.22;;;;;;;6.82;100.00;101621.19;4840685;29;20429;-68
2024/01/23 00:44:00;;;;;;;21.90;4.05;;;;;;;6.84;100.00;101615.75;4841209;29;20040;-68
2024/01/23 00:46:25;;;;;;;17.00;3.60;;;;;;;6.85;100.00;101628.16;4841941;29;20032;-67
2024/01/23 00:48:50;;;;;;;25.35;5.40;;;;;;;6.85;100.00;101636.19;4839096;29;20049;-68
2024/01/23 00:51:15;;;;;;;22.73;4.63;;;;;;;6.87;100.00;101641.47;4840490;29;20109;-68
2024/01/23 00:53:41;;;;;;;21.42;4.47;;;;;;;6.86;100.00;101642.41;4839112;29;20048;-68
2024/01/23 00:56:06;;;;;;;26.60;5.03;;;;;;;6.83;100.00;101646.09;4837161;29;20061;-68
2024/01/23 00:58:31;;;;;;;15.77;4.13;;;;;;;6.82;100.00;101633.66;4837197;29;20428;-68
2024/01/23 01:00:57;;;;;;;15.80;3.97;;;;;;;6.78;100.00;101638.28;4844261;29;20066;-68
2024/01/23 01:03:22;;;;;;;18.08;4.32;;;;;;;6.74;100.00;101651.84;4841723;29;20586;-68
2024/01/23 01:05:47;;;;;;;27.30;5.38;;;;;;;6.72;100.00;101667.06;4837867;29;20449;-68
2024/01/23 01:08:12;;;;;;;25.65;4.43;;;;;;;6.67;100.00;101655.72;4833104;29;20044;-68
2024/01/23 01:10:38;;;;;;;21.00;4.25;;;;;;;6.62;100.00;101663.94;4841156;29;20149;-68
2024/01/23 01:13:03;;;;;;;22.55;4.70;;;;;;;6.58;100.00;101678.34;4841216;29;20044;-68
2024/01/23 01:15:28;;;;;;;25.92;4.75;;;;;;;6.56;100.00;101680.22;4841202;29;20570;-68
2024/01/23 01:17:54;;;;;;;27.10;5.13;;;;;;;6.50;100.00;101669.81;4840292;29;20030;-67
2024/01/23 01:20:19;;;;;;;27.10;5.38;;;;;;;6.46;100.00;101695.78;4840210;29;20040;-68
2024/01/23 01:22:44;;;;;;;20.17;3.92;;;;;;;6.43;100.00;101711.94;4839829;29;20072;-68
2024/01/23 01:25:10;;;;;;;26.67;4.97;;;;;;;6.40;100.00;101688.00;4836339;29;20106;-68
2024/01/23 01:27:35;;;;;;;26.70;5.13;;;;;;;6.36;100.00;101705.13;4837287;29;20502;-68
2024/01/23 01:30:00;;;;;;;22.95;4.65;;;;;;;6.34;100.00;101706.97;4837908;29;20037;-68
2024/01/23 01:32:26;;;;;;;26.13;4.90;;;;;;;6.29;100.00;101729.38;4838311;29;20553;-68
2024/01/23 01:34:51;;;;;;;21.45;4.72;;;;;;;6.28;100.00;101741.00;4835622;29;20193;-68
2024/01/23 01:37:16;;;;;;;18.13;4.13;;;;;;;6.26;100.00;101721.50;4835350;29;20128;-68
2024/01/23 01:39:42;;;;;;;27.17;5.55;;;;;;;6.25;100.00;101718.88;4833003;29;20038;-68
2024/01/23 01:42:07;;;;;;;22.15;4.47;;;;;;;6.23;100.00;101729.63;4833762;29;20087;-68
2024/01/23 01:44:33;;;;;;;24.38;5.15;;;;;;;6.23;100.00;101732.31;4834040;29;20038;-68
2024/01/23 01:46:59;;;;;;;23.25;4.25;;;;;;;6.23;100.00;101724.28;4835235;29;20394;-68
2024/01/23 01:49:25;;;;;;;24.48;4.95;;;;;;;6.26;100.00;101725.97;4821705;29;20026;-68
2024/01/23 01:51:52;;;;;;;19.50;4.72;;;;;;;6.23;100.00;101732.31;4817784;29;20042;-68
2024/01/23 01:54:19;;;;;;;18.73;4.40;;;;;;;6.22;100.00;101730.59;4822390;29;20042;-68
2024/01/23 01:56:45;;;;;;;21.13;4.63;;;;;;;6.20;100.00;101732.44;4824853;29;20038;-68
2024/01/23 01:59:10;;;;;;;25.75;4.38;;;;;;;6.19;100.00;101744.03;4827164;29;20111;-67
2024/01/23 02:01:35;;;;;;;17.48;4.13;;;;;;;6.19;100.00;101765.38;4827196;29;20071;-68
2024/01/23 02:04:01;;;;;;;14.65;3.88;;;;;;;6.17;100.00;101774.41;4822506;29;20091;-67
2024/01/23 02:06:27;;;;;;;20.00;4.40;;;;;;;6.15;100.00;101771.81;4812319;29;20042;-68
2024/01/23 02:08:54;;;;;;;20.42;4.68;;;;;;;6.13;100.00;101778.97;4807468;29;20042;-68
2024/01/23 02:11:19;;;;;;;22.40;4.45;;;;;;;6.10;100.00;101785.31;4829481;29;20026;-68
2024/01/23 02:13:45;;;;;;;19.60;4.40;;;;;;;6.09;100.00;101793.38;4828072;29;20113;-68
2024/01/23 02:16:10;;;;;;;30.95;4.75;;;;;;;6.09;100.00;101810.28;4810827;29;20086;-68
2024/01/23 02:18:36;;;;;;;22.92;4.40;;;;;;;6.07;100.00;101796.09;4823703;29;20498;-68
2024/01/23 02:21:01;;;;;;;20.40;3.80;;;;;;;6.06;100.00;101790.81;4831728;29;20034;-68
2024/01/23 02:23:28;;;;;;;19.92;4.18;;;;;;;6.03;100.00;101788.28;4821837;29;20042;-68
2024/01/23 02:25:54;;;;;;;26.35;5.45;;;;;;;6.03;100.00;101793.63;4805013;29;20026;-68
2024/01/23 02:28:20;;;;;;;23.65;4.78;;;;;;;6.01;100.00;101817.69;4828481;29;20094;-68
2024/01/23 02:30:46;;;;;;;23.13;5.25;;;;;;;6.00;100.00;101815.09;4829648;29;20106;-67
2024/01/23 02:33:12;;;;;;;16.45;4.32;;;;;;;5.98;100.00;101822.28;4823610;29;20049;-67
2024/01/23 02:35:37;;;;;;;22.13;4.70;;;;;;;5.99;100.00;101826.69;4815572;29;20046;-67
2024/01/23 02:38:03;;;;;;;21.02;4.65;;;;;;;5.97;100.00;101831.19;4826284;29;20058;-67
2024/01/23 02:40:28;;;;;;;25.08;4.65;;;;;;;5.95;100.00;101826.78;4816288;29;20395;-67
2024/01/23 02:42:54;;;;;;;25.02;4.28;;;;;;;5.95;100.00;101844.59;4832956;29;20136;-67
2024/01/23 02:45:20;;;;;;;19.20;3.92;;;;;;;5.93;100.00;101843.78;4816211;29;20037;-68
2024/01/23 02:47:45;;;;;;;23.20;5.15;;;;;;;5.92;100.00;101842.91;4827426;29;20529;-67
2024/01/23 02:50:11;;;;;;;25.10;5.30;;;;;;;5.92;100.00;101844.72;4840635;29;20033;-68
2024/01/23 02:52:36;;;;;;;20.42;4.13;;;;;;;5.91;100.00;101849.16;4826100;29;20069;-67
2024/01/23 02:55:03;;;;;;;19.20;4.35;;;;;;;5.88;100.00;101851.94;4837239;29;20379;-67
2024/01/23 02:57:28;;;;;;;24.13;4.75;;;;;;;5.87;100.00;101852.00;4839655;29;20030;-67
2024/01/23 02:59:54;;;;;;;28.60;5.50;;;;;;;5.86;100.00;101863.63;4830942;29;20065;-67
2024/01/23 03:02:23;;;;;;;24.58;5.18;;;;;;;5.85;100.00;101892.06;4840629;29;20166;-67
2024/01/23 03:04:49;;;;;;;16.40;3.90;;;;;;;5.85;100.00;101894.75;4841437;29;20033;-67
2024/01/23 03:07:15;;;;;;;25.77;4.63;;;;;;;5.84;100.00;101892.13;4840603;29;20053;-67
2024/01/23 03:09:43;;;;;;;20.48;4.57;;;;;;;5.85;100.00;101894.75;4839532;29;20030;-67
2024/01/23 03:12:16;;;;;;;20.85;4.40;;;;;;;5.89;100.00;101890.19;4839945;29;20025;-67
2024/01/23 03:14:42;;;;;;;25.73;5.30;;;;;;;5.91;100.00;101890.97;4834283;29;20394;-67
2024/01/23 03:17:08;;;;;;;25.15;4.72;;;;;;;5.93;100.00;101910.50;4839375;29;20182;-67
2024/01/23 03:19:33;;;;;;;24.88;4.55;;;;;;;5.97;100.00;101912.13;4836457;29;20145;-67
2024/01/23 03:21:58;;;;;;;18.55;4.97;;;;;;;5.96;100.00;101923.72;4838765;29;20171;-68
2024/01/23 03:24:24;;;;;;;23.88;5.22;;;;;;;5.93;100.00;101927.38;4839302;29;20490;-68
2024/01/23 03:26:49;;;;;;;17.75;4.10;;;;;;;5.91;100.00;101939.00;4839656;29;20037;-68
2024/01/23 03:29:14;;;;;;;20.88;4.40;;;;;;;5.87;100.00;101946.28;4839433;29;20032;-68
2024/01/23 03:31:39;;;;;;;29.85;5.25;;;;;;;5.82;100.00;101937.53;4840794;29;20034;-65
2024/01/23 03:34:05;;;;;;;26.95;5.57;;;;;;;5.78;100.00;101934.13;4846728;29;20049;-65
2024/01/23 03:36:30;;;;;;;23.70;4.63;;;;;;;5.72;100.00;101934.31;4838860;29;20057;-65
2024/01/23 03:38:55;;;;;;;18.77;3.85;;;;;;;5.72;100.00;101931.66;4844493;29;20048;-68
2024/01/23 03:41:21;;;;;;;22.25;4.63;;;;;;;5.70;100.00;101932.66;4844282;29;20066;-67
2024/01/23 03:43:46;;;;;;;26.60;5.90;;;;;;;5.67;100.00;101936.31;4834164;29;20499;-67
2024/01/23 03:46:11;;;;;;;19.83;4.05;;;;;;;5.64;100.00;101936.41;4839446;29;20054;-67
2024/01/23 03:48:36;;;;;;;22.90;4.80;;;;;;;5.63;100.00;101937.31;4839554;29;20058;-67
2024/01/23 03:51:02;;;;;;;24.60;5.40;;;;;;;5.59;100.00;101941.91;4837873;29;20068;-67
2024/01/23 03:53:27;;;;;;;25.08;5.65;;;;;;;5.58;100.00;101952.63;4835422;29;20031;-67
2024/01/23 03:55:52;;;;;;;26.05;4.85;;;;;;;5.56;100.00;101959.78;4822676;29;20045;-66
2024/01/23 03:58:17;;;;;;;23.58;4.55;;;;;;;5.56;100.00;101967.78;4830867;29;20490;-67
2024/01/23 04:00:43;;;;;;;18.42;4.03;;;;;;;5.54;100.00;101978.50;4830499;29;20112;-67
2024/01/23 04:03:10;;;;;;;26.25;4.85;;;;;;;5.52;100.00;101983.03;4824441;29;20552;-66
2024/01/23 04:05:35;;;;;;;25.05;5.70;;;;;;;5.51;100.00;101983.97;4823447;29;20502;-67
2024/01/23 04:08:00;;;;;;;23.27;5.18;;;;;;;5.49;100.00;101984.94;4836378;29;20113;-67
2024/01/23 04:10:25;;;;;;;24.90;5.38;;;;;;;5.45;100.00;101992.16;4839017;29;20041;-67
2024/01/23 04:12:51;;;;;;;28.85;5.25;;;;;;;5.44;100.00;101985.09;4839062;29;20030;-66
2024/01/23 04:15:16;;;;;;;21.75;5.15;;;;;;;5.42;100.00;101990.47;4837891;29;20512;-67
2024/01/23 04:17:41;;;;;;;27.45;5.25;;;;;;;5.41;100.00;101995.84;4829923;29;20380;-67
2024/01/23 04:20:07;;;;;;;21.08;4.65;;;;;;;5.38;100.00;101991.50;4820672;29;20125;-67
2024/01/23 04:22:34;;;;;;;28.98;4.72;;;;;;;5.34;100.00;101996.97;4837566;29;20034;-67
2024/01/23 04:25:00;;;;;;;26.27;5.20;;;;;;;5.33;100.00;101997.88;4833992;29;20026;-66
2024/01/23 04:27:25;;;;;;;20.80;4.88;;;;;;;5.32;100.00;101998.84;4836368;29;20415;-66
2024/01/23 04:29:51;;;;;;;21.30;4.03;;;;;;;5.33;100.00;102005.88;4826015;29;20344;-67
2024/01/23 04:32:19;;;;;;;23.58;4.90;;;;;;;5.30;100.00;102011.31;4826850;29;20033;-66
2024/01/23 04:34:45;;;;;;;23.85;4.60;;;;;;;5.28;100.00;102015.84;4835421;29;20061;-67
2024/01/23 04:37:10;;;;;;;19.20;5.35;;;;;;;5.25;100.00;102024.81;4834873;29;20397;-67
2024/01/23 04:39:35;;;;;;;25.02;5.32;;;;;;;5.24;100.00;102033.72;4837570;29;20034;-66
2024/01/23 04:42:00;;;;;;;18.58;4.57;;;;;;;5.24;100.00;102044.38;4837210;29;20034;-66
2024/01/23 04:44:26;;;;;;;27.30;5.75;;;;;;;5.22;100.00;102041.75;4838425;29;20466;-67
2024/01/23 04:46:51;;;;;;;14.82;3.60;;;;;;;5.20;100.00;102064.94;4835795;29;20113;-68
2024/01/23 04:49:17;;;;;;;25.05;5.28;;;;;;;5.20;100.00;102070.25;4831566;29;20023;-66
2024/01/23 04:51:42;;;;;;;20.23;4.38;;;;;;;5.19;100.00;102078.31;4819803;29;20091;-67
2024/01/23 04:54:07;;;;;;;23.23;5.07;;;;;;;5.17;100.00;102089.03;4812605;29;20042;-68
2024/01/23 04:56:33;;;;;;;17.85;4.20;;;;;;;5.16;100.00;102094.41;4821107;29;20033;-67
2024/01/23 04:58:58;;;;;;;25.35;5.28;;;;;;;5.13;100.00;102095.34;4822345;29;20070;-67
2024/01/23 05:01:23;;;;;;;27.90;5.22;;;;;;;5.11;100.00;102091.88;4813318;29;20034;-68
2024/01/23 05:03:48;;;;;;;19.80;4.22;;;;;;;5.10;100.00;102087.47;4821444;29;20521;-68
2024/01/23 05:06:14;;;;;;;17.65;3.88;;;;;;;5.07;100.00;102091.09;4810826;29;20030;-67
2024/01/23 05:08:39;;;;;;;32.38;5.63;;;;;;;5.04;100.00;102098.31;4819382;29;20459;-67
2024/01/23 05:11:04;;;;;;;26.08;5.28;;;;;;;5.00;100.00;102109.97;4826829;29;20415;-68
2024/01/23 05:13:30;;;;;;;26.17;5.15;;;;;;;4.98;100.00;102118.00;4822768;29;20025;-67
2024/01/23 05:15:55;;;;;;;22.40;5.28;;;;;;;4.98;100.00;102125.13;4825436;29;20042;-67
2024/01/23 05:18:20;;;;;;;18.67;4.90;;;;;;;4.95;100.00;102131.44;4825314;29;20038;-68
2024/01/23 05:20:45;;;;;;;24.98;4.88;;;;;;;4.93;100.00;102135.03;4827358;29;20102;-68
2024/01/23 05:23:11;;;;;;;24.48;5.30;;;;;;;4.89;100.00;102124.47;4829922;29;20030;-67
2024/01/23 05:25:38;;;;;;;24.40;5.18;;;;;;;4.82;100.00;102138.91;4812998;29;20130;-68
2024/01/23 05:28:03;;;;;;;22.58;4.35;;;;;;;4.81;100.00;102130.94;4811473;29;20433;-68
2024/01/23 05:30:29;;;;;;;19.55;4.30;;;;;;;4.81;100.00;102137.13;4824722;29;20022;-68
2024/01/23 05:32:54;;;;;;;24.83;4.97;;;;;;;4.77;100.00;102146.13;4822512;29;20037;-67
2024/01/23 05:35:19;;;;;;;18.73;4.30;;;;;;;4.77;100.00;102151.44;4818278;29;20036;-67
2024/01/23 05:37:45;;;;;;;23.38;4.25;;;;;;;4.76;100.00;102148.84;4829099;29;20069;-67
2024/01/23 05:40:11;;;;;;;23.45;4.68;;;;;;;4.76;100.00;102159.50;4831802;29;20061;-67
2024/01/23 05:42:36;;;;;;;22.00;4.53;;;;;;;4.74;100.00;102164.84;4824396;29;20026;-67
2024/01/23 05:45:03;;;;;;;18.45;4.65;;;;;;;4.74;100.00;102167.53;4820692;29;20095;-67
2024/01/23 05:47:28;;;;;;;29.83;5.97;;;;;;;4.74;100.00;102172.84;4818143;29;20054;-67
2024/01/23 05:49:54;;;;;;;24.90;4.38;;;;;;;4.76;100.00;102176.38;4818497;29;20030;-68
2024/01/23 05:52:19;;;;;;;31.92;5.15;;;;;;;4.78;100.00;102184.31;4826140;29;20094;-67
2024/01/23 05:54:44;;;;;;;33.75;5.93;;;;;;;4.81;100.00;102190.41;4804573;29;20543;-67
2024/01/23 05:57:10;;;;;;;19.90;4.68;;;;;;;4.81;100.00;102201.06;4824953;29;20120;-67
2024/01/23 05:59:35;;;;;;;26.33;4.93;;;;;;;4.81;100.00;102198.41;4809638;29;20019;-67
2024/01/23 06:02:01;;;;;;;28.85;5.45;;;;;;;4.82;100.00;102202.81;4817198;29;20041;-67
2024/01/23 06:04:26;;;;;;;24.00;5.55;;;;;;;4.83;100.00;102209.91;4811164;29;20079;-67
2024/01/23 06:06:51;;;;;;;22.55;4.75;;;;;;;4.83;100.00;102206.34;4819331;29;20546;-67
2024/01/23 06:09:17;;;;;;;17.77;4.65;;;;;;;4.81;100.00;102209.06;4815778;29;20113;-67
2024/01/23 06:11:42;;;;;;;17.27;4.57;;;;;;;4.81;100.00;102216.19;4827507;29;20498;-67
2024/01/23 06:14:08;;;;;;;28.95;5.05;;;;;;;4.82;100.00;102213.47;4825178;29;20030;-67
2024/01/23 06:16:33;;;;;;;21.40;4.53;;;;;;;4.82;100.00;102216.13;4827070;29;20113;-68
2024/01/23 06:18:58;;;;;;;21.00;4.32;;;;;;;4.81;100.00;102217.03;4818829;29;20458;-68
2024/01/23 06:21:24;;;;;;;34.10;5.45;;;;;;;4.79;100.00;102224.22;4826876;29;20030;-68
2024/01/23 06:23:49;;;;;;;21.75;4.88;;;;;;;4.79;100.00;102221.56;4824705;29;20039;-67
2024/01/23 06:26:15;;;;;;;29.92;5.07;;;;;;;4.79;100.00;102221.56;4819077;29;20078;-67
2024/01/23 06:28:40;;;;;;;22.13;5.30;;;;;;;4.77;100.00;102226.03;4827735;29;20309;-67
2024/01/23 06:31:05;;;;;;;24.70;5.28;;;;;;;4.78;100.00;102226.94;4822910;29;20348;-67
2024/01/23 06:33:31;;;;;;;21.60;5.30;;;;;;;4.78;100.00;102232.25;4825019;29;20360;-67
2024/01/23 06:35:57;;;;;;;22.63;4.30;;;;;;;4.76;100.00;102231.41;4823724;29;20444;-67
2024/01/23 06:38:22;;;;;;;25.45;4.80;;;;;;;4.76;100.00;102239.38;4823241;29;20083;-68
2024/01/23 06:40:47;;;;;;;24.45;4.90;;;;;;;4.75;100.00;102249.19;4827412;29;20090;-67
2024/01/23 06:43:13;;;;;;;23.67;5.75;;;;;;;4.75;100.00;102243.84;4827404;29;20094;-67
2024/01/23 06:45:38;;;;;;;28.15;6.05;;;;;;;4.73;100.00;102248.34;4824213;29;20106;-67
2024/01/23 06:48:04;;;;;;;23.33;4.43;;;;;;;4.69;100.00;102258.19;4824127;29;20763;-67
2024/01/23 06:50:29;;;;;;;21.75;5.60;;;;;;;4.69;100.00;102257.34;4822032;29;20094;-68
2024/01/23 06:52:55;;;;;;;25.98;5.65;;;;;;;4.67;100.00;102256.47;4824209;29;20125;-67
2024/01/23 06:55:20;;;;;;;23.05;5.43;;;;;;;4.67;100.00;102260.03;4817801;29;20069;-67
2024/01/23 06:57:45;;;;;;;21.17;5.25;;;;;;;4.65;100.00;102269.84;4820316;29;20557;-67
2024/01/23 07:00:11;;;;;;;28.45;5.95;;;;;;;4.65;100.00;102269.84;4819276;29;20038;-67
2024/01/23 07:02:37;;;;;;;18.55;4.32;;;;;;;4.64;100.00;102270.78;4815545;29;20045;-67
2024/01/23 07:05:03;;;;;;;17.13;4.78;;;;;;;4.63;100.00;102276.13;4821980;29;20034;-67
2024/01/23 07:07:28;;;;;;;27.58;6.28;;;;;;;4.62;100.00;102269.06;4811260;29;20070;-67
2024/01/23 07:09:54;;;;;;;27.65;5.25;;;;;;;4.61;100.00;102259.31;4824373;29;20069;-67
2024/01/23 07:12:19;;;;;;;23.48;5.05;;;;;;;4.59;100.00;102258.50;4826450;29;20472;-67
2024/01/23 07:14:44;;;;;;;26.33;4.85;;;;;;;4.56;100.00;102264.75;4811735;29;20037;-67
2024/01/23 07:17:10;;;;;;;25.20;6.20;;;;;;;4.55;100.00;102269.22;4818285;29;20510;-67
2024/01/23 07:19:35;;;;;;;28.33;5.38;;;;;;;4.55;100.00;102269.22;4826526;29;20106;-67
2024/01/23 07:22:01;;;;;;;25.65;5.05;;;;;;;4.55;100.00;102263.00;4809294;29;20034;-67
2024/01/23 07:24:26;;;;;;;22.80;5.72;;;;;;;4.53;100.00;102276.34;4820850;29;20033;-68
2024/01/23 07:26:52;;;;;;;20.50;5.13;;;;;;;4.55;100.00;102285.19;4823771;29;20041;-67
2024/01/23 07:29:17;;;;;;;21.15;5.05;;;;;;;4.54;100.00;102294.09;4825624;29;20026;-67
2024/01/23 07:31:42;;;;;;;25.33;5.18;;;;;;;4.55;100.00;102295.84;4822712;29;20494;-68
2024/01/23 07:34:09;;;;;;;25.38;5.60;;;;;;;4.57;100.00;102302.91;4812719;29;20341;-67
2024/01/23 07:36:35;;;;;;;21.65;5.13;;;;;;;4.55;100.00;102301.16;4819795;29;20325;-67
2024/01/23 07:39:00;;;;;;;24.58;5.10;;;;;;;4.54;100.00;102310.06;4826193;29;20069;-67
2024/01/23 07:41:25;;;;;;;26.63;5.63;;;;;;;4.54;100.00;102323.38;4825382;29;20514;-67
2024/01/23 07:43:51;;;;;;;24.02;5.35;;;;;;;4.53;100.00;102316.28;4825088;29;20030;-68
2024/01/23 07:46:17;;;;;;;20.50;5.00;;;;;;;4.52;100.00;102317.22;4818862;29;20061;-67
2024/01/23 07:48:43;;;;;;;23.42;5.53;;;;;;;4.51;100.00;102312.81;4836837;29;20527;-67
2024/01/23 07:51:08;;;;;;;25.35;5.00;;;;;;;4.48;100.00;102318.22;4833979;29;20106;-67
2024/01/23 07:53:34;;;;;;;25.83;4.95;;;;;;;4.48;100.00;102317.31;4832017;29;20738;-68
2024/01/23 07:56:00;;;;;;;28.90;5.93;;;;;;;4.43;100.00;102314.75;4838099;29;20034;-68
2024/01/23 07:58:25;;;;;;;22.48;4.70;;;;;;;4.41;100.00;102318.38;4837757;29;20080;-68
2024/01/23 08:00:50;;;;;;;20.90;5.28;;;;;;;4.41;100.00;102329.00;4837100;29;20097;-68
2024/01/23 08:03:16;;;;;;;20.88;5.05;;;;;;;4.38;100.00;102336.19;4829509;29;20030;-68
2024/01/23 08:05:41;;;;;;;27.92;5.80;;;;;;;4.36;100.00;102345.09;4827347;29;20152;-68
2024/01/23 08:08:06;;;;;;;21.25;4.80;;;;;;;4.35;100.00;102354.00;4839353;29;20033;-67
2024/01/23 08:10:34;;;;;;;22.20;4.68;;;;;;;4.32;100.00;102357.63;4835696;29;20343;-68
2024/01/23 08:12:59;;;;;;;18.73;4.88;;;;;;;4.31;100.00;102357.66;4827268;29;20030;-68
2024/01/23 08:15:24;;;;;;;23.92;5.25;;;;;;;4.32;100.00;102362.03;4830515;29;20058;-67
2024/01/23 08:17:50;;;;;;;22.30;5.07;;;;;;;4.31;100.00;102361.19;4839459;29;20046;-67
2024/01/23 08:20:15;;;;;;;30.60;5.78;;;;;;;4.31;100.00;102376.28;4839286;29;20044;-67
2024/01/23 08:22:41;;;;;;;22.63;5.15;;;;;;;4.30;100.00;102382.50;4841170;29;20038;-66
2024/01/23 08:25:06;;;;;;;22.67;4.78;;;;;;;4.29;100.00;102372.75;4838168;29;20054;-66
2024/01/23 08:27:31;;;;;;;24.15;5.07;;;;;;;4.30;100.00;102375.38;4826371;29;20026;-67
2024/01/23 08:29:57;;;;;;;22.00;5.30;;;;;;;4.30;100.00;102372.72;4828707;29;20101;-66
2024/01/23 08:32:22;;;;;;;27.42;5.50;;;;;;;4.31;100.00;102386.94;4838882;29;20040;-66
2024/01/23 08:34:48;;;;;;;24.23;5.05;;;;;;;4.31;100.00;102397.56;4824461;29;20037;-66
2024/01/23 08:37:14;;;;;;;21.30;4.70;;;;;;;4.32;100.00;102400.19;4830666;29;20033;-67
2024/01/23 08:39:40;;;;;;;24.27;5.20;;;;;;;4.33;100.00;102396.63;4823133;29;20034;-66
2024/01/23 08:42:05;;;;;;;20.52;4.25;;;;;;;4.35;100.00;102399.25;4837612;29;20378;-66
2024/01/23 08:44:30;;;;;;;23.45;5.45;;;;;;;4.38;100.00;102407.19;4824233;29;20052;-67
2024/01/23 08:46:56;;;;;;;22.35;4.75;;;;;;;4.41;100.00;102419.53;4825060;29;20038;-66
2024/01/23 08:49:22;;;;;;;28.33;5.15;;;;;;;4.45;100.00;102418.56;4838408;29;20052;-67
2024/01/23 08:51:47;;;;;;;19.58;3.90;;;;;;;4.49;100.00;102414.91;4829466;29;20030;-66
2024/01/23 08:54:18;;;;;;;20.33;4.90;;;;;;;4.52;100.00;102421.06;4833800;29;20049;-66
2024/01/23 08:56:44;;;;;;;19.13;4.25;;;;;;;4.53;100.00;102419.25;4838694;29;20213;-68
2024/01/23 08:59:09;;;;;;;24.23;6.07;;;;;;;4.56;100.00;102427.19;4838623;29;20133;-67
2024/01/23 09:01:34;;;;;;;21.42;5.22;;;;;;;4.60;100.00;102434.19;4839271;29;20099;-67
2024/01/23 09:04:00;;;;;;;25.42;5.03;;;;;;;4.64;100.00;102422.56;4838625;29;20029;-67
2024/01/23 09:06:25;;;;;;;22.92;5.50;;;;;;;4.69;100.00;102422.47;4838408;29;20109;-66
2024/01/23 09:08:50;;;;;;;25.17;5.47;;;;;;;4.72;100.00;102420.59;4829465;29;20037;-66
2024/01/23 09:11:16;;;;;;;23.17;5.03;;;;;;;4.75;100.00;102419.63;4835498;29;20044;-66
2024/01/23 09:13:41;;;;;;;31.05;5.55;;;;;;;4.79;100.00;102416.00;4837748;29;20034;-67
2024/01/23 09:16:07;;;;;;;23.25;4.25;;;;;;;4.83;100.00;102420.34;4825391;29;20391;-67
2024/01/23 09:18:32;;;;;;;24.92;5.57;;;;;;;4.87;100.00;102423.78;4839141;29;20041;-67
2024/01/23 09:21:02;;;;;;;22.27;5.47;;;;;;;4.90;100.00;102427.28;4833243;29;20260;-66
2024/01/23 09:23:27;;;;;;;21.00;5.00;;;;;;;4.96;100.00;102428.03;4822784;29;20041;-67
2024/01/23 09:25:53;;;;;;;20.83;4.70;;;;;;;5.01;100.00;102423.47;4837347;29;20041;-67
2024/01/23 09:28:18;;;;;;;24.38;5.13;;;;;;;5.03;100.00;102414.50;4836437;29;20022;-66
2024/01/23 09:30:43;;;;;;;30.55;6.60;;;;;;;5.08;100.00;102411.72;4837772;29;20018;-66
2024/01/23 09:33:09;;;;;;;20.02;4.82;;;;;;;5.12;100.00;102431.19;4838092;29;20114;-67
2024/01/23 09:35:36;;;;;;;26.92;6.15;;;;;;;5.16;100.00;102420.41;4837697;29;20099;-66
2024/01/23 09:38:01;;;;;;;30.17;6.07;;;;;;;5.19;100.00;102425.66;4837353;29;20037;-66
2024/01/23 09:40:27;;;;;;;22.60;5.00;;;;;;;5.24;100.00;102422.88;4839597;29;20648;-67
2024/01/23 09:42:55;;;;;;;27.15;5.80;;;;;;;5.30;100.00;102421.84;4840809;29;20102;-67
2024/01/23 09:45:31;;;;;;;23.63;5.82;;;;;;;5.35;100.00;102415.47;4827440;29;20117;-67
2024/01/23 09:47:56;;;;;;;23.50;5.20;;;;;;;5.40;100.00;102421.59;4827566;29;20427;-66
2024/01/23 09:50:26;;;;;;;29.17;6.22;;;;;;;5.46;100.00;102417.00;4842408;29;20038;-67
2024/01/23 09:52:51;;;;;;;;;;;;;;;5.53;100.00;102413.25;4835134;29;20081;-67
2024/01/23 09:55:18;;;;;;;24.08;5.03;;;;;;;5.53;100.00;102414.09;4831847;29;19921;-67
2024/01/23 09:57:44;;;;;;;27.63;5.55;;;;;;;5.57;100.00;102417.59;4838849;29;20033;-66
2024/01/23 10:00:13;;;;;;;29.88;5.50;;;;;;;5.63;100.00;102416.53;4836707;29;20038;-67
2024/01/23 10:02:39;;;;;;;22.27;5.40;;;;;;;5.68;100.00;102422.63;4841913;29;20056;-66
2024/01/23 10:05:08;;;;;;;22.83;5.63;;;;;;;5.70;100.00;102420.81;4838732;29;20308;-67
2024/01/23 10:07:33;;;;;;;20.23;5.60;;;;;;;5.75;100.00;102421.53;4839099;29;20105;-67
2024/01/23 10:09:59;;;;;;;22.83;5.28;;;;;;;5.80;100.00;102427.63;4841045;29;20392;-67
2024/01/23 10:12:24;;;;;;;26.10;5.93;;;;;;;5.84;100.00;102431.06;4837309;29;20038;-67
2024/01/23 10:14:50;;;;;;;23.15;5.75;;;;;;;5.86;100.00;102438.13;4837162;29;20090;-66
2024/01/23 10:17:15;;;;;;;19.85;4.93;;;;;;;5.89;100.00;102438.03;4838188;29;20034;-67
2024/01/23 10:19:40;;;;;;;24.23;5.95;;;;;;;5.92;100.00;102445.94;4837202;29;20097;-67
2024/01/23 10:22:06;;;;;;;24.92;5.15;;;;;;;5.95;100.00;102443.19;4835641;29;20026;-66
2024/01/23 10:24:31;;;;;;;21.70;5.07;;;;;;;5.98;100.00;102436.94;4832419;29;20147;-67
2024/01/23 10:26:57;;;;;;;22.48;5.35;;;;;;;6.02;100.00;102437.72;4836250;29;20030;-67
2024/01/23 10:29:22;;;;;;;24.20;5.13;;;;;;;6.06;100.00;102432.25;4835815;29;20064;-67
2024/01/23 10:31:47;;;;;;;29.77;5.53;;;;;;;6.10;100.00;102433.91;4835594;29;20507;-68
2024/01/23 10:34:13;;;;;;;24.70;5.38;;;;;;;6.18;100.00;102427.47;4837171;29;20062;-67
2024/01/23 10:36:41;;;;;;;23.73;4.97;;;;;;;6.23;100.00;102430.88;4837012;29;20425;-66
2024/01/23 10:39:08;;;;;;;25.80;5.85;;;;;;;6.24;100.00;102428.16;4833362;29;20072;-67
2024/01/23 10:41:33;;;;;;;23.63;5.05;;;;;;;6.28;100.00;102432.50;4836640;29;20082;-67
2024/01/23 10:44:01;;;;;;;26.58;5.72;;;;;;;6.35;100.00;102438.50;4839173;29;20026;-66
2024/01/23 10:46:28;;;;;;;26.00;5.70;;;;;;;6.38;100.00;102435.75;4837267;29;20030;-65
2024/01/23 10:48:54;;;;;;;27.40;5.93;;;;;;;6.41;100.00;102434.78;4849566;29;20125;-65
2024/01/23 10:51:20;;;;;;;32.72;6.88;;;;;;;6.43;100.00;102447.19;4850075;29;20430;-65
2024/01/23 10:54:01;;;;;;;29.50;5.15;;;;;;;6.47;100.00;102435.50;4844638;29;20042;-65
2024/01/23 10:56:31;;;;;;;24.98;5.68;;;;;;;6.52;100.00;102426.47;4841042;29;20429;-65
2024/01/23 10:59:01;;;;;;;22.55;5.30;;;;;;;6.55;100.00;102421.88;4831352;29;20408;-65
2024/01/23 11:01:34;;;;;;;25.38;5.88;;;;;;;6.62;100.00;102428.78;4844277;29;20487;-65
2024/01/23 11:04:00;;;;;;;23.98;4.93;;;;;;;6.71;100.00;102418.75;4845091;29;20512;-65
2024/01/23 11:06:33;;;;;;;22.88;5.50;;;;;;;6.78;100.00;102422.97;4849475;29;20023;-65
2024/01/23 11:09:14;;;;;;;29.02;5.22;;;;;;;6.83;100.00;102418.34;4839376;29;20049;-65